Aeroporto :
LOGIN :

Iscrizione | Disclaimer

   EN    FR    IT 

 










Sommario :    VFR   VFR Marginale   IFR   IFR Intensivo   IFR Molto Intensivo
Visibilità : 
Base nubi : 
>= 8 km
>= 3000ft
5 / 8 km
1000 / 3000 ft
1500m / 5 km
500 / 1000 ft
800 / 1500m
200 / 500 ft
< 800m
< 200 ft
Simboli :   Temporali  Nebbia  Neve Forte  Precipitazioni Forti  Vento > 20 kt
SIGMETs :   Varie  Temporali  Ghiacco  Turbolenza  Onda orograficha  Ceneri Vulcaniche






- Altitudine del aeroporto : 256 ft
- Codice IATA : CFR


LFRK - Caen

ULTIMO METAR :
  • 270100Z AUTO 31005KT CAVOK 11/09 Q1034 NOSIG

METARs OBSOLETI :
  • 270030Z AUTO 31006KT CAVOK 11/10 Q1034 NOSIG
  • 270000Z AUTO 30006KT CAVOK 11/10 Q1034 NOSIG
  • 262330Z AUTO 29006KT CAVOK 10/09 Q1035 NOSIG
  • 262300Z AUTO 30004KT CAVOK 10/09 Q1035 NOSIG
  • 262230Z AUTO 30005KT CAVOK 11/09 Q1035 NOSIG
  • 262200Z AUTO 31003KT CAVOK 12/10 Q1035 NOSIG

TAF TAF LFRK
Valido dal 27 a 00 ore il 28 a 00 ore UTC


262300Z 2700/2724 01007KT CAVOK
Met : +33 2 31 26 68 11



MetMap, La meteo Aeronautica in un colpo d'occhio ! - Copyright ORBIFLY Dicembre 2007 - Disclaimer

ORBIFLY MET'MAP TEAM :

Programmazione e sviluppo : Alexandra Zaïnal
Concezione : Baudouin d'Aumeries
Aiuto per la programmazione : Marc-Olivier Méhu
Supporto tecnico e logistico : Manuel Goepfert
Aiuto per la traduzione : Arnaldo La Scala

Contatto : metmap@orbifly.com




FONTI E CREDITI :

   NOAA